Time;durP1;ratioP1;P1;durP2;ratioP2;P2;SDS_P1;SDS_P2;PMS_P1;PMS_P2;Temp;Humidity;BMP_temperature;BMP_pressure;BME280_temperature;BME280_humidity;BME280_pressure;Samples;Min_cycle;Max_cycle;Signal;HPM_P1;HPM_P2
2023/03/21 00:00:58;;;;;;;14.90;11.27;;;6.40;99.90;;;;;;4993381;28;20029;-56
2023/03/21 00:03:24;;;;;;;14.75;11.32;;;6.40;99.90;;;;;;4993568;28;20084;-59
2023/03/21 00:05:52;;;;;;;12.75;11.02;;;6.40;99.90;;;;;;4993321;28;20454;-56
2023/03/21 00:08:19;;;;;;;12.32;10.65;;;6.30;99.90;;;;;;4993343;28;20437;-54
2023/03/21 00:10:45;;;;;;;15.77;11.40;;;6.30;99.90;;;;;;4993207;28;20385;-53
2023/03/21 00:13:11;;;;;;;21.67;11.70;;;6.20;99.90;;;;;;4993375;28;20028;-55
2023/03/21 00:15:48;;;;;;;16.10;10.93;;;6.20;99.90;;;;;;4992912;28;20053;-54
2023/03/21 00:18:15;;;;;;;15.65;11.07;;;6.00;99.90;;;;;;4993183;28;20121;-58
2023/03/21 00:20:46;;;;;;;15.80;11.07;;;5.90;99.90;;;;;;4992725;28;20034;-56
2023/03/21 00:23:12;;;;;;;14.02;11.13;;;5.80;99.90;;;;;;4992340;28;20032;-57
2023/03/21 00:25:37;;;;;;;14.75;10.90;;;5.70;99.90;;;;;;4992993;28;20030;-54
2023/03/21 00:28:03;;;;;;;14.30;9.85;;;5.70;99.90;;;;;;4992764;28;20105;-57
2023/03/21 00:30:28;;;;;;;12.02;9.65;;;5.70;99.90;;;;;;4992782;28;20026;-56
2023/03/21 00:32:54;;;;;;;11.57;9.65;;;5.70;99.90;;;;;;4991965;28;20018;-58
2023/03/21 00:35:20;;;;;;;13.00;9.93;;;5.60;99.90;;;;;;4990990;28;20023;-56
2023/03/21 00:37:45;;;;;;;14.02;10.07;;;5.60;99.90;;;;;;4992775;28;20115;-56
2023/03/21 00:40:12;;;;;;;14.60;9.57;;;5.50;99.90;;;;;;4992551;28;20063;-57
2023/03/21 00:42:37;;;;;;;11.30;9.20;;;5.50;99.90;;;;;;4992079;28;20018;-54
2023/03/21 00:45:05;;;;;;;12.73;10.32;;;5.50;99.90;;;;;;4992049;28;20034;-56
2023/03/21 00:47:31;;;;;;;11.77;9.88;;;5.40;99.90;;;;;;4992070;28;20157;-52
2023/03/21 00:49:56;;;;;;;15.98;11.10;;;5.40;99.90;;;;;;4992012;28;20105;-52
2023/03/21 00:52:22;;;;;;;15.38;11.07;;;5.50;99.90;;;;;;4992120;28;20420;-51
2023/03/21 00:54:48;;;;;;;13.95;9.73;;;5.50;99.90;;;;;;4990814;28;20375;-55
2023/03/21 00:57:14;;;;;;;15.50;10.73;;;5.50;99.90;;;;;;4992084;28;20022;-54
2023/03/21 00:59:39;;;;;;;16.05;10.90;;;5.50;99.90;;;;;;4992204;28;20027;-54
2023/03/21 01:02:08;;;;;;;11.05;9.63;;;5.60;99.90;;;;;;4992456;28;20030;-56
2023/03/21 01:04:33;;;;;;;14.18;10.55;;;5.60;99.90;;;;;;4992375;28;20152;-56
2023/03/21 01:07:00;;;;;;;18.67;8.90;;;5.60;99.90;;;;;;4992264;28;20491;-54
2023/03/21 01:09:26;;;;;;;14.32;9.55;;;5.60;99.90;;;;;;4992014;28;20037;-58
2023/03/21 01:11:52;;;;;;;17.83;11.52;;;5.60;99.90;;;;;;4991925;28;20390;-56
2023/03/21 01:14:19;;;;;;;17.58;11.48;;;5.50;99.90;;;;;;4991859;28;20381;-51
2023/03/21 01:16:45;;;;;;;13.45;10.30;;;5.50;99.90;;;;;;4992072;28;20045;-52
2023/03/21 01:19:14;;;;;;;15.95;10.98;;;5.50;99.90;;;;;;4991612;28;20031;-53
2023/03/21 01:21:39;;;;;;;10.57;9.48;;;5.50;99.90;;;;;;4991348;28;20030;-55
2023/03/21 01:24:05;;;;;;;12.60;9.82;;;5.50;99.90;;;;;;4990385;28;20030;-54
2023/03/21 01:26:31;;;;;;;16.58;9.88;;;5.50;99.90;;;;;;4991515;28;20054;-58
2023/03/21 01:28:57;;;;;;;12.38;10.68;;;5.50;99.90;;;;;;4991384;28;20061;-56
2023/03/21 01:31:23;;;;;;;11.85;10.35;;;5.50;99.90;;;;;;4989863;28;20047;-50
2023/03/21 01:33:48;;;;;;;11.70;10.02;;;5.50;99.90;;;;;;4995012;28;20026;-56
2023/03/21 01:36:18;;;;;;;12.75;9.98;;;5.60;99.90;;;;;;4998646;28;20026;-54
2023/03/21 01:39:03;;;;;;;16.15;11.20;;;5.60;99.90;;;;;;4997957;28;20058;-56
2023/03/21 01:41:40;;;;;;;12.32;10.95;;;5.60;99.90;;;;;;4997771;28;20516;-57
2023/03/21 01:44:08;;;;;;;25.80;9.93;;;5.70;99.90;;;;;;4998487;28;20034;-56
2023/03/21 01:46:40;;;;;;;13.05;9.95;;;5.70;99.90;;;;;;4996981;28;20129;-53
2023/03/21 01:49:11;;;;;;;18.33;10.73;;;5.70;99.90;;;;;;4998536;28;20149;-55
2023/03/21 01:51:52;;;;;;;18.85;10.88;;;5.70;99.90;;;;;;4996927;28;20109;-53
2023/03/21 01:54:30;;;;;;;16.88;10.25;;;5.70;99.90;;;;;;4998077;28;20030;-52
2023/03/21 01:56:59;;;;;;;16.23;10.55;;;5.70;99.90;;;;;;4997746;28;20037;-57
2023/03/21 01:59:30;;;;;;;14.40;10.25;;;5.70;99.90;;;;;;4997538;28;20030;-56
2023/03/21 02:02:00;;;;;;;12.85;10.02;;;5.80;99.90;;;;;;4997982;28;20165;-50
2023/03/21 02:04:27;;;;;;;13.43;10.43;;;5.80;99.90;;;;;;4998387;28;20088;-53
2023/03/21 02:06:59;;;;;;;17.38;10.70;;;5.80;99.90;;;;;;4997587;28;20482;-56
2023/03/21 02:09:31;;;;;;;14.48;9.55;;;5.80;99.90;;;;;;4997823;28;20129;-53
2023/03/21 02:11:58;;;;;;;11.18;8.98;;;5.80;99.90;;;;;;4997914;28;20030;-54
2023/03/21 02:14:23;;;;;;;10.63;9.55;;;5.80;99.90;;;;;;4998188;28;20366;-55
2023/03/21 02:17:02;;;;;;;11.07;9.98;;;5.80;99.90;;;;;;4998002;28;20073;-56
2023/03/21 02:20:05;;;;;;;9.63;8.63;;;5.90;99.90;;;;;;4998113;28;20022;-53
2023/03/21 02:22:40;;;;;;;11.50;10.18;;;5.90;99.90;;;;;;4997978;28;20027;-52
2023/03/21 02:25:06;;;;;;;14.57;10.10;;;5.90;99.90;;;;;;4998094;28;20023;-56
2023/03/21 02:27:39;;;;;;;11.43;9.30;;;5.90;99.90;;;;;;4996274;28;20043;-53
2023/03/21 02:30:06;;;;;;;;;;;5.90;99.90;;;;;;4998479;28;20057;-54
2023/03/21 02:32:53;;;;;;;10.10;8.20;;;5.90;99.90;;;;;;4997761;28;19960;-52
2023/03/21 02:35:37;;;;;;;12.38;8.75;;;5.90;99.90;;;;;;4997819;28;20478;-56
2023/03/21 02:38:13;;;;;;;12.40;9.35;;;5.90;99.90;;;;;;4998010;28;20061;-57
2023/03/21 02:40:49;;;;;;;13.75;8.63;;;6.00;99.90;;;;;;4997922;28;20026;-57
2023/03/21 02:43:29;;;;;;;16.08;9.65;;;6.00;99.90;;;;;;4997888;28;20030;-57
2023/03/21 02:46:17;;;;;;;10.43;9.35;;;6.00;99.90;;;;;;4992755;28;20118;-54
2023/03/21 02:49:05;;;;;;;12.32;9.60;;;6.00;99.90;;;;;;4994582;28;20030;-55
2023/03/21 02:51:32;;;;;;;13.32;10.07;;;6.00;99.90;;;;;;4994659;28;20041;-54
2023/03/21 02:54:02;;;;;;;10.82;9.55;;;5.90;99.90;;;;;;4994595;28;20454;-56
2023/03/21 02:56:30;;;;;;;9.65;8.75;;;6.00;99.90;;;;;;4994823;28;20114;-55
2023/03/21 02:58:56;;;;;;;10.35;9.25;;;6.00;99.90;;;;;;4994539;28;20026;-55
2023/03/21 03:01:24;;;;;;;10.35;8.98;;;6.00;99.90;;;;;;4993376;28;20036;-53
2023/03/21 03:03:50;;;;;;;11.65;9.80;;;6.00;99.90;;;;;;4994539;28;20022;-55
2023/03/21 03:06:48;;;;;;;11.23;9.88;;;6.00;99.90;;;;;;4994546;28;20084;-55
2023/03/21 03:09:41;;;;;;;10.60;9.50;;;5.90;99.90;;;;;;4993233;28;20417;-52
2023/03/21 03:12:32;;;;;;;20.93;9.40;;;5.90;99.90;;;;;;4994112;28;20030;-54
2023/03/21 03:15:27;;;;;;;12.13;8.20;;;5.90;99.90;;;;;;4993798;28;20036;-56
2023/03/21 03:18:15;;;;;;;9.63;8.70;;;5.90;99.90;;;;;;4983094;28;20060;-55
2023/03/21 03:21:08;;;;;;;13.38;9.75;;;5.90;99.90;;;;;;4993998;28;20497;-51
2023/03/21 03:23:58;;;;;;;10.43;9.43;;;5.90;99.90;;;;;;4994050;28;20069;-57
2023/03/21 03:26:38;;;;;;;10.90;9.27;;;5.80;99.90;;;;;;4994242;28;20026;-53
2023/03/21 03:29:13;;;;;;;12.15;8.63;;;5.90;99.90;;;;;;4992695;28;20081;-55
2023/03/21 03:31:46;;;;;;;11.15;8.93;;;5.90;99.90;;;;;;4993800;28;20023;-55
2023/03/21 03:34:20;;;;;;;9.87;8.73;;;5.90;99.90;;;;;;4993980;28;20515;-52
2023/03/21 03:36:54;;;;;;;12.30;8.93;;;6.00;99.90;;;;;;4993778;28;20026;-57
2023/03/21 03:39:26;;;;;;;8.82;7.93;;;6.00;99.90;;;;;;4993658;28;20027;-55
2023/03/21 03:42:06;;;;;;;9.38;7.88;;;6.00;99.90;;;;;;4992338;28;20378;-56
2023/03/21 03:44:32;;;;;;;13.82;8.90;;;6.00;99.90;;;;;;4992628;28;20061;-55
2023/03/21 03:47:28;;;;;;;10.20;8.88;;;6.00;99.90;;;;;;4993314;28;20036;-54
2023/03/21 03:50:15;;;;;;;10.10;7.63;;;6.00;99.90;;;;;;4993645;28;20422;-55
2023/03/21 03:52:55;;;;;;;10.10;9.10;;;6.00;99.90;;;;;;4993739;28;20046;-54
2023/03/21 03:55:25;;;;;;;9.65;8.73;;;6.00;99.90;;;;;;4993669;28;20027;-57
2023/03/21 03:57:52;;;;;;;13.80;10.45;;;6.00;99.90;;;;;;4993198;28;20092;-56
2023/03/21 04:00:18;;;;;;;11.45;10.27;;;6.00;99.90;;;;;;4993685;28;20034;-52
2023/03/21 04:02:44;;;;;;;12.30;10.88;;;5.90;99.90;;;;;;4993518;28;20078;-55
2023/03/21 04:05:10;;;;;;;11.40;10.25;;;5.90;99.90;;;;;;4992222;28;20030;-54
2023/03/21 04:07:36;;;;;;;12.05;10.85;;;5.90;99.90;;;;;;4992802;28;20389;-57
2023/03/21 04:10:03;;;;;;;12.85;9.65;;;5.90;99.90;;;;;;4992769;28;20019;-57
2023/03/21 04:12:29;;;;;;;10.65;8.93;;;5.90;99.90;;;;;;4992903;28;20032;-56
2023/03/21 04:14:55;;;;;;;12.55;8.77;;;5.80;99.90;;;;;;4992776;28;20723;-53
2023/03/21 04:17:21;;;;;;;12.43;8.65;;;5.90;99.90;;;;;;4993304;28;20362;-54
2023/03/21 04:19:47;;;;;;;12.18;10.55;;;5.90;99.90;;;;;;4993070;28;20030;-53
2023/03/21 04:22:13;;;;;;;12.82;10.75;;;5.90;99.90;;;;;;4992693;28;20030;-56
2023/03/21 04:24:40;;;;;;;12.30;10.55;;;5.90;99.90;;;;;;4992905;28;20053;-55
2023/03/21 04:27:05;;;;;;;13.85;11.20;;;5.90;99.90;;;;;;4991271;28;20126;-56
2023/03/21 04:29:32;;;;;;;21.23;10.88;;;5.90;99.90;;;;;;4992872;28;20113;-52
2023/03/21 04:31:58;;;;;;;15.27;10.25;;;6.00;99.90;;;;;;4991336;28;20113;-56
2023/03/21 04:34:26;;;;;;;14.10;9.32;;;6.00;99.90;;;;;;4991535;28;20088;-57
2023/03/21 04:36:53;;;;;;;12.00;9.10;;;6.00;99.90;;;;;;4992694;28;20231;-56
2023/03/21 04:39:20;;;;;;;10.10;9.15;;;6.00;99.90;;;;;;4992227;28;20046;-55
2023/03/21 04:41:46;;;;;;;11.80;8.57;;;6.00;99.90;;;;;;4992287;28;20101;-57
2023/03/21 04:44:14;;;;;;;11.95;9.05;;;6.00;99.90;;;;;;4992791;28;20185;-54
2023/03/21 04:46:40;;;;;;;13.07;9.90;;;6.00;99.90;;;;;;4992386;28;20080;-52
2023/03/21 04:49:06;;;;;;;14.02;8.85;;;6.00;99.90;;;;;;4992607;28;20420;-57
2023/03/21 04:51:33;;;;;;;11.30;8.77;;;6.00;99.90;;;;;;4992445;28;20022;-56
2023/03/21 04:53:58;;;;;;;9.93;8.82;;;6.00;99.90;;;;;;4992525;28;20022;-54
2023/03/21 04:56:30;;;;;;;9.30;8.38;;;6.10;99.90;;;;;;4991005;28;20019;-55
2023/03/21 04:58:58;;;;;;;9.70;7.65;;;6.00;99.90;;;;;;4992248;28;20050;-57
2023/03/21 05:01:24;;;;;;;9.90;9.00;;;6.00;99.90;;;;;;4992540;28;20030;-57
2023/03/21 05:03:51;;;;;;;9.45;8.48;;;6.00;99.90;;;;;;4992526;28;20109;-56
2023/03/21 05:06:16;;;;;;;10.50;7.78;;;6.10;99.90;;;;;;4992491;28;20034;-54
2023/03/21 05:08:42;;;;;;;11.23;8.35;;;6.10;99.90;;;;;;4991565;28;20034;-57
2023/03/21 05:11:08;;;;;;;14.02;7.68;;;6.10;99.90;;;;;;4992289;28;20347;-56
2023/03/21 05:13:33;;;;;;;10.27;8.50;;;6.10;99.90;;;;;;4990212;28;20482;-55
2023/03/21 05:15:59;;;;;;;11.88;8.75;;;6.10;99.90;;;;;;4992267;28;20095;-56
2023/03/21 05:18:25;;;;;;;11.77;8.05;;;6.10;99.90;;;;;;4991987;28;20428;-54
2023/03/21 05:20:53;;;;;;;11.98;8.43;;;6.10;99.90;;;;;;4992049;28;20421;-57
2023/03/21 05:23:19;;;;;;;14.05;9.52;;;6.20;99.90;;;;;;4990748;28;20113;-57
2023/03/21 05:25:45;;;;;;;10.20;8.13;;;6.20;99.90;;;;;;4991746;28;20441;-56
2023/03/21 05:28:11;;;;;;;11.68;9.05;;;6.20;99.90;;;;;;4991814;28;20053;-54
2023/03/21 05:30:37;;;;;;;11.48;8.45;;;6.20;99.90;;;;;;4991982;28;20031;-55
2023/03/21 05:33:03;;;;;;;11.60;9.70;;;6.30;99.90;;;;;;4990908;28;20057;-56
2023/03/21 05:35:29;;;;;;;15.45;8.90;;;6.30;99.90;;;;;;4990696;28;20057;-54
2023/03/21 05:37:55;;;;;;;21.58;8.38;;;6.30;99.90;;;;;;4991738;28;20125;-57
2023/03/21 05:40:21;;;;;;;12.35;7.90;;;6.40;99.90;;;;;;4992127;28;20022;-55
2023/03/21 05:42:47;;;;;;;10.07;7.75;;;6.40;99.90;;;;;;4991868;28;20031;-57
2023/03/21 05:45:14;;;;;;;11.90;7.90;;;6.50;99.90;;;;;;4991794;28;20053;-55
2023/03/21 05:47:40;;;;;;;27.80;8.93;;;6.50;99.90;;;;;;4991872;28;20409;-54
2023/03/21 05:50:06;;;;;;;11.43;8.27;;;6.60;99.90;;;;;;4991887;28;20022;-57
2023/03/21 05:52:32;;;;;;;9.80;7.03;;;6.60;99.90;;;;;;4991665;28;20030;-59
2023/03/21 05:54:58;;;;;;;15.07;8.20;;;6.70;99.90;;;;;;4991820;28;20049;-58
2023/03/21 05:57:27;;;;;;;11.27;7.38;;;6.70;99.90;;;;;;4991944;28;20027;-54
2023/03/21 05:59:53;;;;;;;7.60;6.78;;;6.80;99.90;;;;;;4991668;28;20049;-58
2023/03/21 06:02:19;;;;;;;9.63;7.53;;;6.70;99.90;;;;;;4991658;28;20030;-55
2023/03/21 06:04:45;;;;;;;9.88;8.35;;;6.80;99.90;;;;;;4989223;28;20037;-56
2023/03/21 06:07:10;;;;;;;20.55;7.55;;;6.90;99.90;;;;;;4990396;28;20042;-56
2023/03/21 06:09:36;;;;;;;8.60;7.70;;;7.00;99.90;;;;;;4991063;28;20045;-58
2023/03/21 06:12:01;;;;;;;9.35;7.07;;;7.00;99.90;;;;;;4991646;28;20026;-55
2023/03/21 06:14:27;;;;;;;8.90;7.50;;;7.10;99.90;;;;;;4990714;28;20030;-57
2023/03/21 06:16:53;;;;;;;15.27;7.68;;;7.20;99.90;;;;;;4989241;28;20054;-56
2023/03/21 06:19:20;;;;;;;8.05;6.85;;;7.30;99.90;;;;;;4991632;28;20058;-54
2023/03/21 06:21:47;;;;;;;12.48;7.43;;;7.40;99.90;;;;;;4993408;28;20054;-57
2023/03/21 06:24:13;;;;;;;18.98;12.00;;;7.60;99.90;;;;;;4994801;28;20026;-54
2023/03/21 06:26:41;;;;;;;11.90;9.30;;;7.70;99.90;;;;;;4994706;28;20489;-57
2023/03/21 06:29:07;;;;;;;14.65;12.23;;;7.90;99.90;;;;;;4994679;28;20045;-56
2023/03/21 06:31:32;;;;;;;10.98;8.95;;;8.00;99.90;;;;;;4994874;28;20641;-57
2023/03/21 06:33:58;;;;;;;16.25;10.50;;;8.20;99.90;;;;;;4993879;28;20027;-58
2023/03/21 06:36:24;;;;;;;9.40;8.27;;;8.40;99.90;;;;;;4994329;28;20102;-53
2023/03/21 06:38:49;;;;;;;10.20;8.35;;;8.60;99.90;;;;;;4994646;28;20372;-56
2023/03/21 06:41:15;;;;;;;8.30;6.82;;;8.80;99.90;;;;;;4994814;28;20050;-58
2023/03/21 06:43:41;;;;;;;8.35;6.32;;;8.80;99.90;;;;;;4994663;28;20031;-57
2023/03/21 06:46:07;;;;;;;6.38;5.57;;;8.80;99.90;;;;;;4994740;28;20129;-55
2023/03/21 06:48:33;;;;;;;6.40;5.60;;;8.70;99.90;;;;;;4994515;28;20064;-56
2023/03/21 06:50:59;;;;;;;8.77;5.40;;;8.70;99.90;;;;;;4994064;28;20026;-55
2023/03/21 06:53:28;;;;;;;7.82;5.82;;;8.70;99.90;;;;;;4994670;28;20042;-57
2023/03/21 06:55:54;;;;;;;8.02;5.68;;;8.70;99.90;;;;;;4993891;28;20018;-55
2023/03/21 06:58:21;;;;;;;6.88;5.50;;;8.70;99.90;;;;;;4993812;28;20035;-55
2023/03/21 07:00:47;;;;;;;11.63;6.22;;;8.70;99.90;;;;;;4994153;28;20040;-56
2023/03/21 07:03:13;;;;;;;6.35;5.63;;;8.70;99.90;;;;;;4993924;28;20030;-56
2023/03/21 07:05:40;;;;;;;9.48;5.57;;;8.80;99.90;;;;;;5005482;28;20034;-57
2023/03/21 07:08:09;;;;;;;6.70;5.93;;;8.80;99.90;;;;;;4996244;28;20033;-56
2023/03/21 07:10:39;;;;;;;6.82;5.47;;;8.90;99.90;;;;;;4994202;28;20421;-53
2023/03/21 07:13:05;;;;;;;7.03;5.45;;;9.00;99.90;;;;;;4994279;28;20022;-58
2023/03/21 07:15:32;;;;;;;5.38;4.88;;;9.20;99.90;;;;;;4993704;28;20056;-57
2023/03/21 07:17:57;;;;;;;8.20;5.93;;;9.30;99.90;;;;;;4993727;28;20441;-57
2023/03/21 07:20:23;;;;;;;5.30;4.80;;;9.40;99.90;;;;;;4993643;28;20019;-56
2023/03/21 07:22:49;;;;;;;5.43;4.93;;;9.50;99.90;;;;;;4993960;28;20058;-56
2023/03/21 07:25:16;;;;;;;6.43;5.18;;;9.50;99.90;;;;;;4993046;28;20038;-56
2023/03/21 07:27:41;;;;;;;6.82;4.50;;;9.60;99.90;;;;;;4993228;28;20061;-57
2023/03/21 07:30:10;;;;;;;5.82;5.22;;;9.70;99.90;;;;;;4993431;28;20026;-54
2023/03/21 07:32:39;;;;;;;7.57;5.00;;;9.60;99.90;;;;;;4991350;28;20032;-58
2023/03/21 07:35:06;;;;;;;5.30;4.70;;;9.70;99.90;;;;;;4993294;28;20022;-54
2023/03/21 07:37:32;;;;;;;7.38;5.63;;;9.70;99.90;;;;;;4993752;28;20053;-54
2023/03/21 07:39:57;;;;;;;5.88;5.25;;;9.80;99.90;;;;;;4993485;28;20022;-57
2023/03/21 07:42:23;;;;;;;6.63;4.65;;;9.90;99.90;;;;;;4993163;28;20113;-56
2023/03/21 07:44:51;;;;;;;5.35;4.30;;;10.00;99.90;;;;;;4976551;28;20054;-59
2023/03/21 07:47:17;;;;;;;9.77;4.35;;;10.10;99.90;;;;;;4993292;28;20077;-58
2023/03/21 07:49:42;;;;;;;5.55;4.95;;;10.20;99.90;;;;;;4992531;28;20034;-58
2023/03/21 07:52:08;;;;;;;4.80;3.65;;;10.20;99.90;;;;;;4992813;28;20085;-55
2023/03/21 07:54:34;;;;;;;5.93;4.80;;;10.30;99.90;;;;;;4993015;28;20030;-56
2023/03/21 07:57:00;;;;;;;5.18;4.72;;;10.40;99.90;;;;;;4993624;28;20041;-58
2023/03/21 07:59:25;;;;;;;6.85;4.78;;;10.40;99.90;;;;;;4993118;28;20027;-55
2023/03/21 08:01:51;;;;;;;5.18;4.38;;;10.50;99.90;;;;;;4992519;28;20037;-57
2023/03/21 08:04:16;;;;;;;8.57;4.85;;;10.60;99.90;;;;;;4991586;28;20033;-57
2023/03/21 08:06:42;;;;;;;4.47;4.07;;;10.80;99.90;;;;;;4993157;28;20084;-57
2023/03/21 08:09:08;;;;;;;17.00;5.05;;;10.80;99.90;;;;;;4993330;28;20143;-57
2023/03/21 08:11:34;;;;;;;5.25;4.68;;;10.90;99.90;;;;;;4993145;28;20041;-53
2023/03/21 08:14:00;;;;;;;4.60;4.18;;;10.80;99.90;;;;;;4992021;28;20037;-56
2023/03/21 08:16:26;;;;;;;5.88;4.78;;;10.80;99.90;;;;;;4992864;28;20093;-59
2023/03/21 08:18:52;;;;;;;10.07;4.55;;;10.90;99.90;;;;;;4992709;28;20034;-55
2023/03/21 08:21:18;;;;;;;10.18;4.80;;;11.00;99.90;;;;;;4992242;28;20033;-58
2023/03/21 08:23:44;;;;;;;4.47;4.13;;;11.30;99.90;;;;;;4992937;28;20054;-54
2023/03/21 08:26:09;;;;;;;4.45;4.05;;;11.40;99.90;;;;;;4993244;28;20104;-56
2023/03/21 08:28:38;;;;;;;5.22;4.35;;;11.50;99.90;;;;;;4992576;28;20678;-58
2023/03/21 08:31:09;;;;;;;8.90;4.63;;;11.70;99.90;;;;;;4992365;28;20110;-56
2023/03/21 08:33:35;;;;;;;14.13;5.05;;;11.80;99.90;;;;;;4992186;28;20030;-58
2023/03/21 08:36:01;;;;;;;7.07;4.25;;;11.90;99.90;;;;;;4992694;28;20524;-52
2023/03/21 08:38:28;;;;;;;5.72;4.75;;;12.10;99.90;;;;;;4992858;28;20101;-66
2023/03/21 08:40:55;;;;;;;6.13;4.28;;;12.10;99.90;;;;;;4992879;28;20375;-60
2023/03/21 08:43:21;;;;;;;6.10;4.47;;;12.30;99.90;;;;;;4991657;28;20030;-59
2023/03/21 08:45:47;;;;;;;5.10;4.60;;;12.30;99.90;;;;;;4992679;28;20031;-58
2023/03/21 08:48:13;;;;;;;8.95;4.53;;;12.30;99.90;;;;;;4992550;28;20030;-55
2023/03/21 08:50:39;;;;;;;5.80;4.78;;;12.20;99.90;;;;;;4992231;28;20349;-58
2023/03/21 08:53:04;;;;;;;7.13;4.53;;;12.30;99.90;;;;;;4992708;28;20023;-58
2023/03/21 08:55:32;;;;;;;5.20;4.32;;;12.40;99.90;;;;;;4992581;28;20601;-59
2023/03/21 08:57:58;;;;;;;5.35;4.65;;;12.60;99.90;;;;;;4991044;28;20393;-59
2023/03/21 09:00:24;;;;;;;5.05;4.55;;;12.90;99.90;;;;;;4992421;28;20014;-59
2023/03/21 09:02:52;;;;;;;3.83;3.50;;;13.10;99.90;;;;;;4992257;28;20373;-57
2023/03/21 09:05:18;;;;;;;4.38;3.85;;;13.40;98.50;;;;;;4992374;28;20492;-58
2023/03/21 09:07:44;;;;;;;3.58;3.28;;;13.50;98.20;;;;;;4991796;28;20038;-59
2023/03/21 09:10:14;;;;;;;3.83;3.42;;;13.80;97.40;;;;;;4992312;28;20065;-56
2023/03/21 09:12:40;;;;;;;4.10;3.22;;;13.60;95.40;;;;;;4991723;28;20034;-54
2023/03/21 09:15:07;;;;;;;9.18;3.88;;;13.80;95.60;;;;;;4991916;28;20042;-58
2023/03/21 09:17:32;;;;;;;3.88;3.47;;;13.70;94.20;;;;;;4991898;28;20022;-57
2023/03/21 09:20:37;;;;;;;3.90;3.35;;;14.10;95.70;;;;;;4992277;28;20036;-55
2023/03/21 09:23:03;;;;;;;3.75;2.47;;;14.20;96.00;;;;;;4991035;28;20105;-56
2023/03/21 09:25:29;;;;;;;4.03;3.13;;;14.50;93.60;;;;;;4991187;28;20101;-55
2023/03/21 09:27:56;;;;;;;4.72;3.30;;;14.50;93.80;;;;;;4990894;28;20514;-59
2023/03/21 09:30:22;;;;;;;6.80;3.78;;;14.30;94.10;;;;;;4990634;28;20402;-56
2023/03/21 09:32:49;;;;;;;5.47;3.90;;;14.20;95.10;;;;;;4991215;28;20029;-56
2023/03/21 09:35:19;;;;;;;6.75;3.65;;;14.30;94.50;;;;;;4991695;28;20421;-58
2023/03/21 09:37:47;;;;;;;5.25;3.85;;;14.30;94.90;;;;;;4991506;28;20032;-57
2023/03/21 09:43:48;;;;;;;3.80;3.50;;;14.90;94.30;;;;;;4991810;28;20030;-51
2023/03/21 09:46:35;;;;;;;4.05;3.63;;;15.20;94.20;;;;;;4990634;28;20116;-57
2023/03/21 09:49:11;;;;;;;6.63;3.53;;;15.50;93.30;;;;;;4991450;28;20552;-59
2023/03/21 09:51:51;;;;;;;3.58;3.25;;;15.80;91.80;;;;;;4991393;28;20031;-58
2023/03/21 09:54:36;;;;;;;4.03;3.63;;;15.90;91.00;;;;;;4992663;28;20122;-59
2023/03/21 09:57:24;;;;;;;4.20;3.38;;;15.80;93.00;;;;;;4995585;28;20061;-59
2023/03/21 09:59:52;;;;;;;4.90;3.53;;;15.70;90.20;;;;;;4995703;28;20022;-57
2023/03/21 10:02:35;;;;;;;4.95;3.35;;;16.30;90.50;;;;;;4995559;28;20122;-57
2023/03/21 10:05:10;;;;;;;4.90;3.65;;;16.70;89.60;;;;;;4995595;28;20030;-59
2023/03/21 10:07:41;;;;;;;10.70;4.35;;;16.60;90.80;;;;;;4995392;28;20042;-59
2023/03/21 10:10:17;;;;;;;5.85;4.10;;;16.50;85.00;;;;;;4995487;28;20437;-60
2023/03/21 10:12:45;;;;;;;5.28;4.00;;;16.80;85.70;;;;;;4995459;28;20034;-58
2023/03/21 10:15:16;;;;;;;4.13;3.78;;;16.70;85.80;;;;;;4995091;28;20022;-59
2023/03/21 10:17:47;;;;;;;5.63;3.53;;;17.00;86.40;;;;;;4995583;28;20440;-52
2023/03/21 10:20:20;;;;;;;4.30;3.90;;;17.10;82.20;;;;;;4995329;28;20041;-58
2023/03/21 10:22:50;;;;;;;4.47;4.07;;;16.50;82.00;;;;;;4995208;28;20022;-57
2023/03/21 10:25:49;;;;;;;6.22;4.20;;;17.10;86.20;;;;;;4993995;28;20077;-58
2023/03/21 10:28:19;;;;;;;3.60;3.30;;;16.80;82.60;;;;;;4989527;28;20482;-57
2023/03/21 10:30:57;;;;;;;5.15;4.38;;;17.00;82.50;;;;;;4994667;28;20030;-59
2023/03/21 10:33:26;;;;;;;6.45;3.63;;;17.30;80.60;;;;;;4994532;28;20015;-60
2023/03/21 10:35:58;;;;;;;6.55;3.13;;;17.60;80.80;;;;;;4994417;28;20033;-57
2023/03/21 10:38:25;;;;;;;4.07;3.72;;;18.00;81.20;;;;;;4994815;28;20367;-60
2023/03/21 10:40:52;;;;;;;7.15;3.85;;;18.10;78.90;;;;;;4994873;28;20458;-59
2023/03/21 10:43:39;;;;;;;3.92;3.50;;;18.30;77.90;;;;;;4994669;28;20034;-59
2023/03/21 10:46:08;;;;;;;5.13;3.88;;;18.20;76.70;;;;;;4995306;28;20040;-55
2023/03/21 10:48:35;;;;;;;4.40;3.33;;;18.30;79.30;;;;;;4994202;28;20034;-59
2023/03/21 10:51:04;;;;;;;5.93;4.25;;;18.70;76.30;;;;;;4994761;28;20026;-57
2023/03/21 10:53:35;;;;;;;5.53;3.50;;;18.80;77.10;;;;;;4994825;28;20019;-59
2023/03/21 10:56:05;;;;;;;5.95;3.28;;;19.00;77.10;;;;;;4994624;28;20023;-59
2023/03/21 10:58:38;;;;;;;5.25;4.05;;;19.10;72.50;;;;;;4993945;28;20022;-60
2023/03/21 11:01:08;;;;;;;4.78;3.17;;;20.30;71.50;;;;;;4994344;28;20109;-60
2023/03/21 11:03:42;;;;;;;3.50;2.80;;;20.80;64.50;;;;;;4994399;28;20034;-61
2023/03/21 11:06:16;;;;;;;3.88;3.35;;;20.40;63.70;;;;;;4992988;28;20030;-59
2023/03/21 11:08:47;;;;;;;4.65;3.03;;;22.60;60.00;;;;;;4993880;28;20034;-60
2023/03/21 11:11:37;;;;;;;3.20;2.88;;;24.20;56.90;;;;;;4993545;28;20026;-59
2023/03/21 11:14:07;;;;;;;8.57;4.68;;;25.40;51.50;;;;;;4994395;28;20030;-60
2023/03/21 11:16:42;;;;;;;5.70;2.67;;;24.90;47.90;;;;;;4994295;28;20358;-60
2023/03/21 11:19:25;;;;;;;5.85;3.05;;;25.60;46.30;;;;;;4994987;28;20477;-61
2023/03/21 11:21:51;;;;;;;2.97;2.60;;;25.50;46.50;;;;;;4994076;28;20030;-60
2023/03/21 11:24:18;;;;;;;2.10;2.00;;;26.00;43.80;;;;;;4993846;28;20032;-59
2023/03/21 11:26:47;;;;;;;3.83;2.65;;;25.00;45.30;;;;;;4993795;28;20054;-61
2023/03/21 11:29:30;;;;;;;4.55;2.47;;;26.50;44.50;;;;;;4967045;28;20134;-59
2023/03/21 11:32:19;;;;;;;;;;;25.90;43.80;;;;;;4965059;28;20034;-61
2023/03/21 11:34:45;;;;;;;5.43;3.00;;;26.00;43.60;;;;;;4962154;28;19917;-58
2023/03/21 11:37:25;;;;;;;2.00;1.90;;;25.70;43.20;;;;;;4964388;28;20030;-61
2023/03/21 11:39:56;;;;;;;3.45;2.55;;;25.00;42.60;;;;;;4963881;28;20023;-61
2023/03/21 11:42:27;;;;;;;2.20;1.85;;;25.90;43.50;;;;;;4963536;28;20034;-59
2023/03/21 11:45:03;;;;;;;1.90;1.80;;;25.50;41.00;;;;;;4963935;28;20054;-59
2023/03/21 11:47:30;;;;;;;3.45;2.30;;;24.70;42.50;;;;;;4962071;28;20027;-60
2023/03/21 11:50:05;;;;;;;2.65;2.08;;;24.80;43.50;;;;;;4962329;28;20097;-59
2023/03/21 11:52:42;;;;;;;2.80;2.55;;;24.80;42.80;;;;;;4963429;28;20022;-60
2023/03/21 11:55:37;;;;;;;5.90;3.08;;;23.50;44.70;;;;;;4963232;28;20028;-60
2023/03/21 11:58:18;;;;;;;4.07;2.67;;;24.20;45.20;;;;;;4963783;28;20030;-59
2023/03/21 12:01:14;;;;;;;2.95;2.50;;;24.70;42.40;;;;;;4962964;28;20066;-60
2023/03/21 12:03:52;;;;;;;4.85;2.15;;;25.70;42.90;;;;;;4962743;28;20509;-60
2023/03/21 12:06:21;;;;;;;4.47;2.20;;;26.00;41.80;;;;;;4963400;28;20042;-61
2023/03/21 12:08:59;;;;;;;4.82;2.58;;;28.50;40.20;;;;;;4963212;28;20035;-59
2023/03/21 12:11:56;;;;;;;6.63;2.67;;;27.80;40.40;;;;;;4963373;28;20106;-61
2023/03/21 12:14:38;;;;;;;3.22;2.40;;;26.90;39.80;;;;;;4963846;28;20483;-61
2023/03/21 12:17:10;;;;;;;7.10;2.25;;;25.80;42.70;;;;;;4974327;28;20030;-60
2023/03/21 12:20:10;;;;;;;3.15;2.80;;;26.40;41.30;;;;;;4963851;28;20374;-59
2023/03/21 12:22:56;;;;;;;15.63;6.50;;;25.80;40.70;;;;;;4962851;28;20868;-60
2023/03/21 12:25:38;;;;;;;4.35;2.50;;;26.50;41.40;;;;;;4963491;28;20049;-60
2023/03/21 12:28:22;;;;;;;3.00;2.78;;;26.20;39.90;;;;;;4963150;28;20138;-61
2023/03/21 12:31:12;;;;;;;2.35;2.10;;;25.50;41.50;;;;;;4962676;28;20141;-61
2023/03/21 12:33:59;;;;;;;3.15;2.38;;;25.10;43.20;;;;;;4962651;28;20046;-61
2023/03/21 12:36:48;;;;;;;4.63;2.47;;;23.60;42.90;;;;;;4963927;28;20027;-61
2023/03/21 12:39:33;;;;;;;2.85;2.53;;;23.00;42.90;;;;;;4961236;28;20081;-60
2023/03/21 12:42:10;;;;;;;3.20;2.78;;;22.30;45.90;;;;;;4962980;28;20031;-60
2023/03/21 12:44:40;;;;;;;2.55;2.17;;;22.60;47.90;;;;;;4962384;28;20035;-59
2023/03/21 12:47:36;;;;;;;2.92;2.50;;;23.70;46.50;;;;;;4960596;28;20686;-61
2023/03/21 12:50:24;;;;;;;5.68;2.38;;;25.60;42.30;;;;;;4958750;28;20042;-62
2023/03/21 12:52:58;;;;;;;4.88;3.90;;;24.30;40.90;;;;;;4963269;28;20077;-61
2023/03/21 12:55:33;;;;;;;3.50;3.17;;;22.80;43.60;;;;;;4973209;28;20058;-61
2023/03/21 12:58:27;;;;;;;4.50;2.70;;;22.90;46.80;;;;;;4972930;28;20049;-59
2023/03/21 13:01:00;;;;;;;5.97;2.30;;;24.40;45.80;;;;;;4972276;28;20058;-60
2023/03/21 13:03:52;;;;;;;5.68;2.50;;;25.80;42.20;;;;;;4972972;28;20031;-60
2023/03/21 13:06:21;;;;;;;4.50;2.38;;;25.80;43.70;;;;;;4983111;28;20026;-61
2023/03/21 13:09:02;;;;;;;2.60;2.40;;;25.30;41.60;;;;;;4991691;28;20034;-60
2023/03/21 13:11:30;;;;;;;2.90;2.70;;;24.70;42.10;;;;;;4992136;28;20025;-61